Time;durP1;ratioP1;P1;durP2;ratioP2;P2;SDS_P1;SDS_P2;PMS_P1;PMS_P2;Temp;Humidity;BMP_temperature;BMP_pressure;BME280_temperature;BME280_humidity;BME280_pressure;Samples;Min_cycle;Max_cycle;Signal;HPM_P1;HPM_P2
2022/03/24 00:01:35;;;;;;;18.58;12.52;;;;;;;11.64;41.51;101098.88;4968489;28;20034;-86
2022/03/24 00:04:02;;;;;;;17.52;11.40;;;;;;;11.61;41.41;101101.75;4967493;28;20382;-86
2022/03/24 00:06:30;;;;;;;20.85;11.32;;;;;;;11.56;41.38;101098.56;4986963;28;20588;-86
2022/03/24 00:08:57;;;;;;;18.52;11.73;;;;;;;11.50;41.51;101102.53;5003629;28;20382;-86
2022/03/24 00:11:24;;;;;;;22.50;12.07;;;;;;;11.47;41.57;101095.63;5021035;28;20057;-86
2022/03/24 00:13:50;;;;;;;16.98;10.40;;;;;;;11.44;41.70;101095.81;5012707;28;20084;-86
2022/03/24 00:16:19;;;;;;;18.38;11.40;;;;;;;11.43;41.92;101091.47;5015859;28;20432;-86
2022/03/24 00:18:46;;;;;;;19.88;11.57;;;;;;;11.39;41.65;101087.31;5015315;28;20049;-86
2022/03/24 00:21:13;;;;;;;17.27;11.13;;;;;;;11.39;41.53;101089.16;5001889;28;20044;-86
2022/03/24 00:23:45;;;;;;;15.70;10.88;;;;;;;11.32;41.54;101085.22;4988092;28;20334;-85
2022/03/24 00:26:12;;;;;;;18.63;11.57;;;;;;;11.30;41.94;101086.19;5018366;28;20045;-86
2022/03/24 00:28:39;;;;;;;18.80;12.32;;;;;;;11.30;41.79;101086.19;5014317;28;20042;-85
2022/03/24 00:31:07;;;;;;;21.90;12.38;;;;;;;11.26;42.07;101083.84;4996927;28;20134;-86
2022/03/24 00:33:33;;;;;;;16.75;11.10;;;;;;;11.24;42.04;101083.94;4993911;28;20485;-85
2022/03/24 00:36:01;;;;;;;24.48;11.95;;;;;;;11.22;42.11;101085.91;5000925;28;20042;-86
2022/03/24 00:43:17;;;;;;;20.95;11.13;;;;;;;11.07;42.34;101087.81;4990669;28;20033;-85
2022/03/24 00:45:43;;;;;;;21.70;10.95;;;;;;;11.07;42.30;101087.81;4992895;28;20122;-85
2022/03/24 00:48:10;;;;;;;22.40;12.07;;;;;;;11.01;42.35;101088.25;5000557;28;20483;-85
2022/03/24 00:50:37;;;;;;;18.50;10.52;;;;;;;10.97;43.04;101092.09;4992024;28;20391;-85
2022/03/24 00:53:04;;;;;;;23.05;11.27;;;;;;;10.95;43.15;101083.38;4981811;28;20082;-85
2022/03/24 00:55:31;;;;;;;22.10;11.55;;;;;;;10.94;43.20;101079.03;4992911;28;20053;-85
2022/03/24 00:57:58;;;;;;;17.33;11.27;;;;;;;10.92;43.54;101075.63;4974750;28;20042;-86
2022/03/24 01:00:28;;;;;;;19.40;11.27;;;;;;;10.91;43.34;101078.38;5009597;28;20041;-86
2022/03/24 01:02:55;;;;;;;17.92;11.85;;;;;;;10.85;43.76;101080.50;4960531;28;20050;-85
2022/03/24 01:05:23;;;;;;;19.40;11.10;;;;;;;10.82;43.40;101074.56;4997507;28;20130;-85
2022/03/24 01:07:50;;;;;;;18.50;11.20;;;;;;;10.81;42.76;101073.72;5005825;28;20072;-85
2022/03/24 01:10:18;;;;;;;18.55;11.13;;;;;;;10.78;42.55;101076.56;5013147;28;20498;-85
2022/03/24 01:12:47;;;;;;;19.77;11.88;;;;;;;10.77;42.96;101076.69;5002694;28;20045;-85
2022/03/24 01:15:16;;;;;;;18.98;11.32;;;;;;;10.76;43.08;101074.97;5016793;28;20383;-85
2022/03/24 01:17:43;;;;;;;18.95;11.45;;;;;;;10.76;42.76;101070.53;4987141;28;20490;-85
2022/03/24 01:20:14;;;;;;;20.83;11.55;;;;;;;10.74;42.47;101069.78;4998300;28;20132;-85
2022/03/24 01:22:41;;;;;;;17.75;10.50;;;;;;;10.75;42.41;101066.16;4987312;28;20042;-86
2022/03/24 01:25:08;;;;;;;20.98;11.50;;;;;;;10.73;42.10;101072.53;4969593;28;20039;-86
2022/03/24 01:27:38;;;;;;;17.23;10.68;;;;;;;10.72;42.00;101063.72;4957680;28;20038;-81
2022/03/24 01:30:11;;;;;;;19.13;11.52;;;;;;;10.63;42.00;101074.97;4986746;28;20050;-81
2022/03/24 01:32:40;;;;;;;19.20;11.57;;;;;;;10.62;42.16;101065.31;4978273;28;20046;-81
2022/03/24 01:35:07;;;;;;;20.77;12.38;;;;;;;10.62;41.85;101068.81;4977992;28;20491;-81
2022/03/24 01:37:35;;;;;;;18.55;11.85;;;;;;;10.58;41.96;101066.47;4982065;28;20461;-81
2022/03/24 01:40:08;;;;;;;17.77;10.65;;;;;;;10.47;42.34;101069.03;4986532;28;20053;-81
2022/03/24 01:42:35;;;;;;;18.05;11.23;;;;;;;10.46;42.31;101070.84;4967191;28;20056;-81
2022/03/24 01:45:04;;;;;;;17.70;10.98;;;;;;;10.45;42.17;101070.94;4989336;28;20053;-81
2022/03/24 01:47:32;;;;;;;17.70;11.90;;;;;;;10.43;42.66;101071.00;4979856;28;20149;-81
2022/03/24 01:49:59;;;;;;;23.08;12.27;;;;;;;10.40;42.72;101064.09;4952571;28;20486;-81
2022/03/24 01:52:26;;;;;;;21.73;11.43;;;;;;;10.40;42.77;101072.06;4972728;28;20050;-81
2022/03/24 01:54:56;;;;;;;19.10;10.73;;;;;;;10.40;42.93;101063.25;4990690;28;20042;-81
2022/03/24 01:57:25;;;;;;;17.73;11.05;;;;;;;10.39;42.92;101062.41;4979269;28;20050;-81
2022/03/24 01:59:53;;;;;;;20.45;11.85;;;;;;;10.38;42.80;101058.06;4951491;28;20059;-81
2022/03/24 02:02:20;;;;;;;18.60;10.98;;;;;;;10.37;42.87;101052.84;4985677;28;20046;-81
2022/03/24 02:04:48;;;;;;;17.80;10.73;;;;;;;10.35;42.87;101050.28;4984569;28;20168;-81
2022/03/24 02:07:20;;;;;;;20.67;11.63;;;;;;;10.34;43.09;101050.41;4955136;28;20042;-81
2022/03/24 02:09:47;;;;;;;15.32;10.35;;;;;;;10.33;43.10;101054.00;4995069;28;20438;-81
2022/03/24 02:12:17;;;;;;;19.73;11.15;;;;;;;10.31;43.04;101050.63;4990642;28;20041;-81
2022/03/24 02:14:44;;;;;;;16.75;10.90;;;;;;;10.29;42.78;101052.53;4977430;28;20046;-81
2022/03/24 02:17:11;;;;;;;19.10;11.05;;;;;;;10.27;43.08;101055.25;4976416;28;20050;-81
2022/03/24 02:19:37;;;;;;;18.67;10.68;;;;;;;10.27;43.18;101054.41;4987198;28;20060;-81
2022/03/24 02:22:10;;;;;;;20.83;10.82;;;;;;;10.20;43.30;101046.88;5006164;28;20100;-81
2022/03/24 02:24:37;;;;;;;21.77;12.13;;;;;;;10.20;43.08;101051.31;4986175;28;20050;-81
2022/03/24 02:27:04;;;;;;;20.38;10.57;;;;;;;10.18;43.13;101046.13;4976021;28;20536;-81
2022/03/24 02:29:31;;;;;;;18.73;11.75;;;;;;;10.16;42.94;101055.13;4980490;28;20370;-81
2022/03/24 02:31:58;;;;;;;20.55;11.75;;;;;;;10.14;43.00;101054.38;4988121;28;20041;-81
2022/03/24 02:34:37;;;;;;;21.02;11.43;;;;;;;10.12;43.25;101050.97;4991263;28;20052;-81
2022/03/24 02:37:07;;;;;;;20.88;11.55;;;;;;;10.08;43.14;101058.31;4997417;28;20050;-81
2022/03/24 02:39:35;;;;;;;18.65;11.23;;;;;;;10.06;43.39;101052.25;4952821;28;20057;-81
2022/03/24 02:42:03;;;;;;;19.23;11.85;;;;;;;10.06;43.48;101046.09;4966595;28;20054;-81
2022/03/24 02:44:31;;;;;;;18.02;11.55;;;;;;;10.06;43.26;101048.75;5002756;28;20053;-81
2022/03/24 02:47:01;;;;;;;22.83;11.73;;;;;;;10.02;43.42;101049.88;4983553;28;20056;-81
2022/03/24 02:49:33;;;;;;;22.75;10.88;;;;;;;9.99;43.40;101046.47;4979001;28;20049;-81
2022/03/24 02:52:00;;;;;;;21.20;11.43;;;;;;;9.98;43.41;101046.59;4994946;28;20066;-81
2022/03/24 02:54:29;;;;;;;18.23;11.40;;;;;;;9.96;43.31;101045.84;5009694;28;20371;-81
2022/03/24 02:56:56;;;;;;;18.98;11.65;;;;;;;9.94;43.21;101045.09;5011918;28;20096;-81
2022/03/24 02:59:23;;;;;;;20.17;11.65;;;;;;;9.91;43.43;101048.81;5012709;28;20608;-81
2022/03/24 03:01:59;;;;;;;21.23;11.48;;;;;;;9.85;43.44;101056.34;4979208;28;20038;-81
2022/03/24 03:04:28;;;;;;;17.30;10.60;;;;;;;9.87;43.54;101054.41;4977997;28;20057;-81
2022/03/24 03:06:55;;;;;;;17.83;11.52;;;;;;;9.83;43.34;101050.28;4983548;28;20187;-81
2022/03/24 03:09:22;;;;;;;16.77;10.98;;;;;;;9.81;43.34;101050.38;5010122;28;20185;-81
2022/03/24 03:11:50;;;;;;;21.70;11.88;;;;;;;9.80;43.84;101048.69;4958855;28;20384;-81
2022/03/24 03:14:20;;;;;;;18.33;11.48;;;;;;;9.78;43.64;101056.72;4988816;28;20053;-81
2022/03/24 03:16:47;;;;;;;21.17;11.15;;;;;;;9.76;43.55;101058.63;4998489;28;20048;-81
2022/03/24 03:19:15;;;;;;;20.55;11.73;;;;;;;9.74;43.60;101065.84;4976154;28;20454;-81
2022/03/24 03:21:46;;;;;;;19.35;11.30;;;;;;;9.68;43.48;101060.94;4988237;28;20522;-81
2022/03/24 03:24:13;;;;;;;21.15;12.07;;;;;;;9.70;43.79;101066.16;5016232;28;20046;-81
2022/03/24 03:26:40;;;;;;;18.88;11.57;;;;;;;9.69;43.71;101059.13;5002128;28;20060;-81
2022/03/24 03:29:07;;;;;;;20.42;11.38;;;;;;;9.67;43.96;101069.84;5003832;28;20053;-82
2022/03/24 03:31:34;;;;;;;20.60;11.02;;;;;;;9.65;43.83;101068.25;5018664;28;20049;-81
2022/03/24 03:34:02;;;;;;;18.60;10.82;;;;;;;9.62;43.92;101066.66;4971061;28;20046;-81
2022/03/24 03:36:30;;;;;;;16.33;11.40;;;;;;;9.60;43.97;101067.69;5003969;28;20092;-81
2022/03/24 03:39:26;;;;;;;16.33;11.75;;;;;;;9.43;44.33;101074.91;5000972;28;20589;-81
2022/03/24 03:41:54;;;;;;;17.20;10.88;;;;;;;9.52;43.88;101070.84;4979548;28;20117;-81
2022/03/24 03:44:21;;;;;;;19.55;12.25;;;;;;;9.51;43.97;101074.41;5004307;28;20490;-81
2022/03/24 03:46:48;;;;;;;19.75;11.15;;;;;;;9.47;44.07;101065.81;4999908;28;20532;-81
2022/03/24 03:49:15;;;;;;;21.42;12.15;;;;;;;9.47;44.02;101072.94;4981406;28;20041;-81
2022/03/24 03:51:41;;;;;;;20.92;11.73;;;;;;;9.44;44.20;101071.31;4995542;28;20144;-81
2022/03/24 03:54:08;;;;;;;17.55;11.52;;;;;;;9.44;44.28;101073.09;4989794;28;20045;-81
2022/03/24 03:56:36;;;;;;;21.02;11.18;;;;;;;9.43;44.14;101072.25;5014048;28;20068;-81
2022/03/24 03:59:04;;;;;;;18.63;10.90;;;;;;;9.38;44.18;101073.50;4998344;28;20064;-81
2022/03/24 04:01:31;;;;;;;19.50;11.40;;;;;;;9.34;44.02;101079.00;5004118;28;20037;-81
2022/03/24 04:03:59;;;;;;;18.35;11.05;;;;;;;9.33;44.19;101073.78;5013776;28;20049;-81
2022/03/24 04:06:26;;;;;;;18.15;11.48;;;;;;;9.30;44.10;101072.19;4963695;28;20057;-81
2022/03/24 04:08:53;;;;;;;23.63;12.13;;;;;;;9.28;44.38;101078.53;5003964;28;20042;-81
2022/03/24 04:11:19;;;;;;;18.40;11.73;;;;;;;9.25;43.96;101074.28;4978954;28;20038;-82
2022/03/24 04:13:46;;;;;;;21.80;12.25;;;;;;;9.23;44.35;101068.22;5003105;28;20052;-81
2022/03/24 04:16:13;;;;;;;18.40;10.85;;;;;;;9.23;44.27;101075.31;4986242;28;20042;-81
2022/03/24 04:18:43;;;;;;;20.15;11.57;;;;;;;9.20;44.61;101073.72;4982474;28;20121;-81
2022/03/24 04:21:10;;;;;;;19.40;11.32;;;;;;;9.18;44.49;101067.66;4981029;28;20069;-81
2022/03/24 04:23:39;;;;;;;18.35;11.50;;;;;;;9.17;44.59;101073.91;5015485;28;20057;-81
2022/03/24 04:26:06;;;;;;;19.73;11.75;;;;;;;9.15;44.49;101069.66;4981720;28;20041;-81
2022/03/24 04:28:33;;;;;;;19.30;10.80;;;;;;;9.12;44.36;101070.72;4988909;28;20054;-81
2022/03/24 04:31:01;;;;;;;18.20;11.55;;;;;;;9.09;44.51;101077.03;4985147;28;20065;-81
2022/03/24 04:33:28;;;;;;;20.25;11.40;;;;;;;9.07;44.38;101078.09;4982706;28;20458;-80
2022/03/24 04:35:56;;;;;;;21.05;10.85;;;;;;;9.04;44.83;101078.28;4964045;28;20081;-81
2022/03/24 04:38:24;;;;;;;20.67;11.88;;;;;;;9.02;44.64;101075.72;4977317;28;20467;-81
2022/03/24 04:40:50;;;;;;;22.42;13.13;;;;;;;8.99;44.94;101080.38;4984376;28;20046;-80
2022/03/24 04:43:17;;;;;;;21.80;15.05;;;;;;;8.96;44.77;101080.56;4977491;28;20760;-81
2022/03/24 04:46:12;;;;;;;40.20;28.05;;;;;;;8.81;45.29;101090.31;4970458;28;20450;-81
2022/03/24 04:48:39;;;;;;;39.42;28.20;;;;;;;8.90;44.57;101087.94;4945388;28;20061;-81
2022/03/24 04:51:06;;;;;;;31.48;20.83;;;;;;;8.87;44.88;101092.56;4981430;28;20394;-79
2022/03/24 04:53:33;;;;;;;28.42;19.58;;;;;;;8.84;45.13;101095.41;4971440;28;20489;-79
2022/03/24 04:56:00;;;;;;;31.83;23.00;;;;;;;8.78;44.92;101094.00;4950581;28;20133;-80
2022/03/24 04:58:29;;;;;;;29.13;20.23;;;;;;;8.73;44.99;101093.41;4995299;28;20045;-79
2022/03/24 05:00:59;;;;;;;24.15;14.60;;;;;;;8.69;45.14;101097.19;4975545;28;20379;-81
2022/03/24 05:03:28;;;;;;;24.85;15.52;;;;;;;8.66;45.67;101105.31;4988386;28;20041;-80
2022/03/24 05:05:56;;;;;;;20.27;13.48;;;;;;;8.63;45.49;101108.16;5014927;28;20045;-79
2022/03/24 05:08:22;;;;;;;20.88;13.57;;;;;;;8.61;45.55;101107.38;4985295;28;20087;-79
2022/03/24 05:10:50;;;;;;;22.08;13.63;;;;;;;8.60;45.68;101106.53;5010419;28;20069;-79
2022/03/24 05:13:18;;;;;;;23.85;13.93;;;;;;;8.58;45.75;101108.44;5010607;28;20041;-79
2022/03/24 05:15:44;;;;;;;20.17;12.90;;;;;;;8.57;45.43;101113.81;5015841;28;20167;-80
2022/03/24 05:18:12;;;;;;;21.88;12.27;;;;;;;8.55;45.82;101108.63;4999526;28;20048;-80
2022/03/24 05:20:39;;;;;;;25.10;11.93;;;;;;;8.54;45.63;101112.19;5016108;28;20609;-81
2022/03/24 05:23:11;;;;;;;20.33;11.52;;;;;;;8.47;45.99;101111.72;5007295;28;20139;-81
2022/03/24 05:25:37;;;;;;;19.02;11.18;;;;;;;8.48;45.75;101113.41;4990457;28;20045;-80
2022/03/24 05:28:04;;;;;;;23.48;11.35;;;;;;;8.47;45.65;101113.50;5000810;28;20718;-80
2022/03/24 05:30:31;;;;;;;18.88;11.35;;;;;;;8.44;45.75;101117.16;5009445;28;20152;-80
2022/03/24 05:32:58;;;;;;;19.95;11.10;;;;;;;8.40;45.98;101115.66;5008941;28;20084;-80
2022/03/24 05:35:24;;;;;;;20.60;11.50;;;;;;;8.37;46.14;101122.88;5001577;28;20056;-80
2022/03/24 05:37:51;;;;;;;23.25;12.10;;;;;;;8.36;45.82;101123.84;4986728;28;20052;-80
2022/03/24 05:40:18;;;;;;;20.60;11.55;;;;;;;8.33;45.95;101122.22;4978653;28;20198;-81
2022/03/24 05:42:44;;;;;;;20.80;12.63;;;;;;;8.31;46.16;101120.59;4996053;28;20053;-80
2022/03/24 05:45:12;;;;;;;18.15;11.20;;;;;;;8.29;46.35;101125.13;5013574;28;20046;-81
2022/03/24 05:47:39;;;;;;;21.00;10.77;;;;;;;8.26;46.11;101123.50;4997741;28;20545;-81
2022/03/24 05:50:09;;;;;;;18.48;11.50;;;;;;;8.26;46.23;101121.72;5001048;28;20124;-81
2022/03/24 05:53:02;;;;;;;19.63;11.13;;;;;;;8.22;46.33;101114.91;4970400;28;20054;-80
2022/03/24 05:55:29;;;;;;;19.48;10.90;;;;;;;8.24;46.16;101125.38;4996608;28;20069;-82
2022/03/24 05:57:56;;;;;;;23.02;11.82;;;;;;;8.19;46.54;101124.81;4980863;28;20040;-80
2022/03/24 06:00:23;;;;;;;22.73;11.65;;;;;;;8.18;46.37;101126.59;4973053;28;20054;-81
2022/03/24 06:02:50;;;;;;;23.73;11.77;;;;;;;8.14;46.58;101127.75;4991394;28;20094;-81
2022/03/24 06:05:18;;;;;;;20.73;11.77;;;;;;;8.12;46.78;101126.13;4963913;28;20486;-80
2022/03/24 06:07:44;;;;;;;22.80;11.63;;;;;;;8.11;46.57;101134.97;4993071;28;20056;-80
2022/03/24 06:10:12;;;;;;;21.50;11.68;;;;;;;8.12;46.86;101128.78;4963592;28;20045;-81
2022/03/24 06:12:40;;;;;;;18.30;11.50;;;;;;;8.10;46.87;101131.50;4978170;28;20058;-80
2022/03/24 06:15:07;;;;;;;24.80;11.73;;;;;;;8.11;46.77;101129.69;4987241;28;20049;-80
2022/03/24 06:17:35;;;;;;;18.35;11.35;;;;;;;8.10;46.60;101133.28;4968874;28;20734;-81
2022/03/24 06:20:02;;;;;;;20.00;11.73;;;;;;;8.10;46.45;101128.84;4993988;28;20049;-80
2022/03/24 06:22:29;;;;;;;21.38;11.95;;;;;;;8.11;46.85;101138.47;4979524;28;20042;-80
2022/03/24 06:24:56;;;;;;;19.25;12.10;;;;;;;8.09;46.45;101135.09;4984421;28;20041;-81
2022/03/24 06:27:23;;;;;;;22.88;12.20;;;;;;;8.10;46.57;101138.59;4990306;28;20157;-80
2022/03/24 06:29:49;;;;;;;21.77;12.55;;;;;;;8.10;46.34;101139.44;5011381;28;20052;-80
2022/03/24 06:32:16;;;;;;;23.15;11.75;;;;;;;8.09;46.44;101142.16;5013917;28;20049;-80
2022/03/24 06:34:43;;;;;;;21.63;12.27;;;;;;;8.09;46.49;101135.09;5001201;28;20091;-80
2022/03/24 06:37:10;;;;;;;20.33;11.88;;;;;;;8.10;46.76;101134.13;4979868;28;20053;-81
2022/03/24 06:39:37;;;;;;;22.13;12.20;;;;;;;8.11;46.67;101142.91;4959963;28;20041;-81
2022/03/24 06:42:04;;;;;;;28.42;12.25;;;;;;;8.12;46.83;101134.06;5006452;28;20141;-81
2022/03/24 06:44:31;;;;;;;25.23;13.13;;;;;;;8.12;46.95;101142.84;4994315;28;20096;-80
2022/03/24 06:46:57;;;;;;;21.73;12.18;;;;;;;8.13;46.89;101141.91;5012360;28;20071;-80
2022/03/24 06:49:24;;;;;;;23.15;12.90;;;;;;;8.15;46.85;101142.66;4980605;28;20108;-80
2022/03/24 06:51:52;;;;;;;31.20;12.68;;;;;;;8.15;46.91;101141.81;4997199;28;20041;-80
2022/03/24 06:54:18;;;;;;;19.33;12.77;;;;;;;8.15;47.08;101140.03;5008044;28;20043;-80
2022/03/24 06:56:45;;;;;;;20.27;11.98;;;;;;;8.17;47.42;101140.78;5007529;28;20502;-80
2022/03/24 06:59:12;;;;;;;22.25;12.40;;;;;;;8.19;47.38;101136.25;4985193;28;20046;-80
2022/03/24 07:01:40;;;;;;;21.98;11.82;;;;;;;8.20;47.23;101137.13;4975050;28;20056;-82
2022/03/24 07:04:07;;;;;;;21.77;12.38;;;;;;;8.22;47.58;101140.53;4988253;28;20038;-81
2022/03/24 07:06:34;;;;;;;20.38;11.85;;;;;;;8.23;47.33;101137.78;5002450;28;20053;-80
2022/03/24 07:09:01;;;;;;;23.20;12.38;;;;;;;8.23;47.58;101137.78;5003811;28;20095;-81
2022/03/24 07:11:28;;;;;;;21.50;12.13;;;;;;;8.25;47.50;101143.00;5020229;28;20052;-81
2022/03/24 07:13:55;;;;;;;22.63;12.00;;;;;;;8.25;48.00;101138.53;4981757;28;20061;-81
2022/03/24 07:16:22;;;;;;;22.63;12.77;;;;;;;8.25;48.00;101137.69;5006068;28;20613;-80
2022/03/24 07:18:49;;;;;;;22.83;12.93;;;;;;;8.29;47.98;101139.22;4979411;28;20558;-80
2022/03/24 07:21:16;;;;;;;22.27;13.43;;;;;;;8.31;48.24;101139.97;4984555;28;20052;-81
2022/03/24 07:23:43;;;;;;;30.35;13.50;;;;;;;8.23;48.40;101134.28;5018404;28;20665;-81
2022/03/24 07:26:09;;;;;;;24.00;12.93;;;;;;;8.29;48.47;101138.38;4987177;28;20464;-80
2022/03/24 07:28:36;;;;;;;23.90;12.18;;;;;;;8.34;48.61;101131.00;4967851;28;20072;-80
2022/03/24 07:31:15;;;;;;;20.45;12.18;;;;;;;8.24;49.19;101141.28;5012191;28;20505;-81
2022/03/24 07:33:48;;;;;;;19.63;12.15;;;;;;;8.33;48.65;101138.09;4968307;28;20549;-81
2022/03/24 07:36:15;;;;;;;21.90;12.40;;;;;;;8.30;49.14;101142.72;4956855;28;20050;-81
2022/03/24 07:38:42;;;;;;;28.67;12.68;;;;;;;8.25;49.40;101145.63;4962366;28;20462;-80
2022/03/24 07:41:09;;;;;;;26.40;12.93;;;;;;;8.30;49.09;101140.09;4950688;28;20498;-80
2022/03/24 07:43:36;;;;;;;17.55;11.63;;;;;;;8.37;49.05;101139.63;4939701;28;20069;-81
2022/03/24 07:46:02;;;;;;;22.00;12.77;;;;;;;8.42;48.65;101139.38;4946700;28;20045;-80
2022/03/24 07:48:30;;;;;;;19.67;11.23;;;;;;;8.49;48.64;101130.13;4955665;28;20081;-80
2022/03/24 07:50:59;;;;;;;21.65;12.48;;;;;;;8.50;48.34;101131.88;4961625;28;20053;-81
2022/03/24 07:53:32;;;;;;;22.08;12.55;;;;;;;8.43;49.17;101130.50;4943924;28;20475;-81
2022/03/24 07:55:59;;;;;;;28.27;12.77;;;;;;;8.43;48.98;101131.34;4949433;28;20043;-80
2022/03/24 07:58:26;;;;;;;18.73;12.35;;;;;;;8.41;48.87;101130.59;4945979;28;20051;-80
2022/03/24 08:00:53;;;;;;;20.08;12.38;;;;;;;8.47;48.96;101129.38;4966305;28;20057;-80
2022/03/24 08:03:21;;;;;;;23.20;11.90;;;;;;;8.53;48.89;101138.78;4947675;28;20082;-81
2022/03/24 08:05:48;;;;;;;16.30;11.75;;;;;;;8.58;48.75;101128.75;5002319;28;20050;-82
2022/03/24 08:08:16;;;;;;;20.10;11.77;;;;;;;8.60;48.98;101132.16;4991482;28;20574;-80
2022/03/24 08:10:47;;;;;;;20.23;12.93;;;;;;;8.56;49.54;101128.84;4983616;28;20042;-80
2022/03/24 08:13:16;;;;;;;21.65;12.55;;;;;;;8.51;49.65;101127.41;4994851;28;20042;-81
2022/03/24 08:15:43;;;;;;;19.45;12.85;;;;;;;8.60;49.70;101124.19;5000511;28;20379;-81
2022/03/24 08:18:11;;;;;;;19.50;13.00;;;;;;;8.61;49.57;101124.13;4998802;28;20045;-81
2022/03/24 08:20:38;;;;;;;21.33;12.85;;;;;;;8.57;49.40;101121.75;4990669;28;20058;-80
2022/03/24 08:23:06;;;;;;;21.08;13.18;;;;;;;8.64;49.49;101125.72;5003432;28;20049;-80
2022/03/24 08:25:33;;;;;;;25.05;13.07;;;;;;;8.63;49.39;101121.41;4986835;28;20647;-80
2022/03/24 08:28:00;;;;;;;24.05;13.85;;;;;;;8.69;49.75;101131.59;5012920;28;20667;-80
2022/03/24 08:30:26;;;;;;;25.55;14.30;;;;;;;8.79;50.16;101116.88;5007427;28;20570;-80
2022/03/24 08:32:53;;;;;;;23.08;13.32;;;;;;;8.84;49.92;101122.75;4997036;28;20037;-80
2022/03/24 08:35:20;;;;;;;24.13;13.70;;;;;;;8.82;49.68;101129.06;4991659;28;20038;-80
2022/03/24 08:37:47;;;;;;;23.95;14.05;;;;;;;8.84;49.98;101121.88;4982126;28;20056;-80
2022/03/24 08:40:15;;;;;;;25.90;14.77;;;;;;;8.83;49.94;101125.50;5010255;28;20046;-81
2022/03/24 08:42:42;;;;;;;23.58;14.40;;;;;;;8.90;49.87;101114.44;4997947;28;20054;-80
2022/03/24 08:45:12;;;;;;;26.98;15.13;;;;;;;8.94;50.40;101115.09;5006236;28;20890;-80
2022/03/24 08:47:39;;;;;;;29.27;15.15;;;;;;;8.97;50.13;101106.09;4993509;28;20042;-81
2022/03/24 08:50:07;;;;;;;22.90;14.43;;;;;;;8.99;50.10;101106.88;4983474;28;20042;-81
2022/03/24 08:52:35;;;;;;;26.77;13.75;;;;;;;9.01;50.13;101112.94;5022369;28;20053;-81
2022/03/24 08:55:05;;;;;;;23.63;14.30;;;;;;;9.01;50.29;101111.13;5008929;28;20042;-80
2022/03/24 08:57:33;;;;;;;24.40;15.00;;;;;;;9.05;50.26;101109.13;4992943;28;20053;-80
2022/03/24 09:00:03;;;;;;;24.48;13.65;;;;;;;9.10;50.17;101112.34;5002432;28;20049;-81
2022/03/24 09:02:30;;;;;;;24.95;14.45;;;;;;;9.10;50.30;101107.88;4999598;28;20046;-80
2022/03/24 09:04:57;;;;;;;25.17;14.25;;;;;;;9.15;49.86;101112.06;4977771;28;20061;-81
2022/03/24 09:07:40;;;;;;;30.33;16.10;;;;;;;9.14;50.07;101108.56;4976963;28;20049;-81
2022/03/24 09:10:10;;;;;;;22.77;13.93;;;;;;;9.21;49.40;101101.94;4972647;28;20062;-81
2022/03/24 09:12:40;;;;;;;23.98;14.57;;;;;;;9.18;49.82;101104.75;4995837;28;20057;-80
2022/03/24 09:15:08;;;;;;;25.90;14.63;;;;;;;9.19;50.36;101101.19;5014666;28;20481;-80
2022/03/24 09:17:36;;;;;;;27.27;14.88;;;;;;;9.26;49.94;101098.97;4998716;28;20414;-80
2022/03/24 09:20:11;;;;;;;25.77;13.77;;;;;;;9.24;49.97;101100.91;4989783;28;20054;-80
2022/03/24 09:22:42;;;;;;;26.05;14.93;;;;;;;9.26;49.70;101099.84;4985714;28;20054;-80
2022/03/24 09:25:12;;;;;;;23.05;14.10;;;;;;;9.27;50.00;101098.91;4983532;28;20049;-81
2022/03/24 09:27:40;;;;;;;23.88;13.65;;;;;;;9.34;50.06;101102.03;4990804;28;20049;-81
2022/03/24 09:30:08;;;;;;;25.30;14.57;;;;;;;9.39;49.92;101104.34;5007445;28;20041;-80
2022/03/24 09:32:35;;;;;;;30.25;15.48;;;;;;;9.40;50.14;101101.63;5014712;28;20080;-80
2022/03/24 09:35:04;;;;;;;26.42;14.18;;;;;;;9.41;50.37;101099.81;5009654;28;20048;-81
2022/03/24 09:37:33;;;;;;;21.30;13.88;;;;;;;9.46;50.68;101100.38;4983070;28;20054;-80
2022/03/24 09:40:03;;;;;;;27.55;14.23;;;;;;;9.51;50.39;101096.47;4993324;28;20049;-80
2022/03/24 09:42:29;;;;;;;25.92;15.43;;;;;;;9.54;50.69;101101.59;4987243;28;20109;-80
2022/03/24 09:45:01;;;;;;;28.45;15.57;;;;;;;9.56;51.15;101102.34;4992546;28;20064;-81
2022/03/24 09:47:29;;;;;;;25.20;14.98;;;;;;;9.59;51.01;101090.69;5008718;28;20410;-80
2022/03/24 09:49:56;;;;;;;29.55;16.23;;;;;;;9.69;50.47;101096.25;5014684;28;20060;-81
2022/03/24 09:52:25;;;;;;;26.45;15.15;;;;;;;9.68;50.27;101092.75;5011115;28;20528;-81
2022/03/24 09:54:52;;;;;;;25.25;14.23;;;;;;;9.71;50.41;101094.34;5013204;28;20049;-80
2022/03/24 09:57:20;;;;;;;24.67;15.38;;;;;;;9.77;50.54;101096.63;4998575;28;20049;-80
2022/03/24 09:59:47;;;;;;;28.55;15.43;;;;;;;9.76;50.61;101102.88;4976411;28;20053;-80
2022/03/24 10:02:14;;;;;;;23.55;14.23;;;;;;;9.77;50.51;101093.97;5003045;28;20061;-81
2022/03/24 10:04:48;;;;;;;28.05;15.35;;;;;;;9.82;50.80;101094.53;4977453;28;20056;-80
2022/03/24 10:07:17;;;;;;;26.42;15.13;;;;;;;9.86;50.59;101090.69;4918346;28;20081;-81
2022/03/24 10:09:46;;;;;;;24.40;13.45;;;;;;;9.86;50.26;101093.34;5010562;28;20046;-80
2022/03/24 10:12:34;;;;;;;27.73;15.30;;;;;;;9.78;50.65;101085.91;4991694;28;20461;-80
2022/03/24 10:15:07;;;;;;;28.02;15.02;;;;;;;9.90;50.26;101084.25;4993969;28;20120;-81
2022/03/24 10:17:34;;;;;;;23.85;13.85;;;;;;;9.94;50.31;101079.59;5013577;28;20146;-80
2022/03/24 10:20:08;;;;;;;27.98;14.65;;;;;;;9.93;50.15;101077.91;4993880;28;20084;-80
2022/03/24 10:22:36;;;;;;;24.50;13.27;;;;;;;9.98;50.56;101086.41;5000957;28;20715;-81
2022/03/24 10:25:18;;;;;;;25.65;14.32;;;;;;;10.00;50.49;101077.38;4976819;28;20046;-80
2022/03/24 10:27:49;;;;;;;28.70;15.25;;;;;;;10.03;50.23;101079.00;4951535;28;20050;-80
2022/03/24 10:30:16;;;;;;;31.05;16.50;;;;;;;10.08;50.32;101078.69;4997461;28;20634;-80
2022/03/24 10:32:55;;;;;;;29.55;15.60;;;;;;;10.04;49.71;101069.22;4973997;28;20073;-80
2022/03/24 10:35:22;;;;;;;28.75;15.88;;;;;;;10.14;49.87;101071.16;4961346;28;20486;-81
2022/03/24 10:37:51;;;;;;;28.23;15.38;;;;;;;10.13;49.63;101073.94;4995628;28;20861;-81
2022/03/24 10:40:18;;;;;;;26.77;15.48;;;;;;;10.16;49.82;101068.41;5005471;28;20046;-81
2022/03/24 10:42:45;;;;;;;28.33;15.73;;;;;;;10.23;49.86;101069.69;5002673;28;20091;-81
2022/03/24 10:45:12;;;;;;;30.63;16.17;;;;;;;10.32;49.87;101063.78;4999186;28;20730;-80
2022/03/24 10:47:54;;;;;;;27.45;16.02;;;;;;;10.24;49.73;101062.59;4994974;28;20049;-80
2022/03/24 10:50:40;;;;;;;28.67;15.82;;;;;;;10.26;49.51;101066.00;4974651;28;20112;-81
2022/03/24 10:53:19;;;;;;;29.35;16.45;;;;;;;10.30;50.04;101052.41;4977360;28;20042;-81
2022/03/24 10:56:05;;;;;;;28.55;15.75;;;;;;;10.39;49.85;101050.97;4957167;28;20046;-80
2022/03/24 10:58:43;;;;;;;29.88;15.88;;;;;;;10.33;48.93;101043.38;4990498;28;20046;-81
2022/03/24 11:01:12;;;;;;;28.70;16.38;;;;;;;10.40;49.34;101047.34;4982679;28;20047;-80
2022/03/24 11:03:40;;;;;;;29.25;15.98;;;;;;;10.49;48.46;101051.19;4984908;28;20049;-80
2022/03/24 11:06:09;;;;;;;31.95;16.80;;;;;;;10.52;49.18;101048.31;5002396;28;20433;-81
2022/03/24 11:08:36;;;;;;;26.80;14.85;;;;;;;10.58;47.94;101040.78;4973417;28;20116;-80
2022/03/24 11:11:14;;;;;;;29.67;15.82;;;;;;;10.56;46.60;101040.03;5006049;28;20057;-80
2022/03/24 11:13:58;;;;;;;27.52;14.55;;;;;;;10.55;46.94;101043.63;4999022;28;20045;-80
2022/03/24 11:16:28;;;;;;;29.65;15.50;;;;;;;10.70;47.63;101038.22;4969134;28;20421;-81
2022/03/24 11:18:56;;;;;;;29.27;14.95;;;;;;;10.73;47.66;101038.00;4972425;28;20384;-81
2022/03/24 11:21:33;;;;;;;30.73;17.15;;;;;;;10.74;47.18;101035.25;4970097;28;20115;-80
2022/03/24 11:24:01;;;;;;;25.33;15.02;;;;;;;10.77;46.96;101043.00;4960141;28;20051;-80
2022/03/24 11:26:28;;;;;;;29.23;15.55;;;;;;;10.80;46.27;101025.97;4999039;28;20060;-81